Main page
METAR-TAF:

METAR-TAF

Airports :

Kalskag Airport

Kalskag, Alaska, United States

latitude: 61-32-11N, longitude: 160-20-29W, elevation: 56 ft

Current weather observation

The report was made 42 minutes ago, at 02:56 UTC
Wind 12 mph from the East with gusts up to 17 mph
Temperature 16°F
Humidity 92%
Pressure 29.50 in. Hg
Visibility: 10 miles
Broken clouds at a height of 6000 ft
Overcast at a height of 7500 ft
light snow

METAR: PALG 070256Z AUTO 09010G15KT 10SM -SN BKN060 OVC075 M09/M10 A2950 RMK AO2 SNE0159B54 SLP994 6//// T10891100 58030 FZRANO PNO $

Time: 18:38 (03:38 UTC)


TAF: missing

Weather observations and forecasts of more than 4000 airports (METAR and TAF reports).

The available stations are represented by yellow and red dots on the map.

Hover mouse over dot to see the name of the station.

Then click to see weather observations and forecasts.

To change the map : click on the green buttons with a black cross to zoom in, on the green button with a dash to zoom out, or on the green arrows for adjacent maps.


METAR-TAF: